Well Handicapped

 Today   Tomorrow
DATE COURSE TIME NO. HORSE ODDS POS TRAINER JOCKEY OR FM SP PICK
30 May 2024 LINGFIELD 2:20 1 GREEK GIANT 17 9/2 Ed Dunlop Rossa Ryan 71 77 101 3
30 May 2024 LINGFIELD 2:20 3 AFRICAN STAR 131 13/2 Mark Loughnane William Buick 69 82 100 1
30 May 2024 LINGFIELD 2:20 4 DAARIS 35 8/1 Kevin Frost Saffie Osborne 64 77 100 6
30 May 2024 LINGFIELD 2:20 8 DOTTIES STAR 24 Pat Phelan Paddy Bradley 58 81 88 9
30 May 2024 LINGFIELD 2:20 2 ABRAAJ 14 7/2 Simon Pearce Jack Mitchell 69 78 110 5
30 May 2024 LINGFIELD 2:20 6 DOUBLETHETROUBLE 14 8/1 John Butler Silvestre De Sousa 61 79 106 7
30 May 2024 LINGFIELD 2:20 9 SHIP TO SHORE 220 17/1 Patrick Chamings Hollie Doyle 58 82 96 3
29 May 2024 BEVERLEY 2:10 11 TEMPER TRAP 16 25/1 9th Tim Easterby Faye McManoman 61 89 103 7
29 May 2024 BEVERLEY 2:10 5 POWDERING 12 6/5F 1st Michael Herrington Joanna Mason 71 86 103 1
29 May 2024 BEVERLEY 2:10 2 EVOCATIVE SPARK 21 5/1 to 13/2 2nd Darryll Holland Franny Norton 74 95 101 5
29 May 2024 BEVERLEY 2:10 6 EL MONTEJEAN 25 22/1 7th Mark Walford Jack Garritty 71 86 101 9
29 May 2024 BEVERLEY 2:10 1 CHALLET 12 5/1 5th Michael Dods Connor Beasley 75 86 104 2
29 May 2024 BEVERLEY 2:10 10 MICKEY MONGOOSE 15 9/1 6th Olly Williams Morgan Cole 5 62 84 98 4
30 May 2024 FFOS LAS 3:00 2 STEPPENWOLF 124 David Pipe Jack Tudor 110 123 99 2
30 May 2024 FFOS LAS 3:00 3 BALLINSKER 38 Evan Williams Isabel Williams 3 109 131 107 1
30 May 2024 RIPON 3:15 4 LODDON 29 7/2 Sara Ender Joe Fanning 61 86 100 4
30 May 2024 RIPON 3:15 1 MAN OF A'AN 38 Liam Bailey Daniel Tudhope 69 79 100 3
30 May 2024 RIPON 3:15 3 JEWEL MAKER 29 Tim Easterby David Allan 63 88 102 1
30 May 2024 FFOS LAS 3:35 1 GIVE ME A MOMENT 35 15/2 Richard J Bandey Harry Bannister 117 132 96 4
30 May 2024 FFOS LAS 3:35 3 SHOWBUSINESS 155 Tim Vaughan Alan Johns 114 131 105 5
29 May 2024 NEWTON ABBOT 2:58 1 WAYFINDER 42 7/2 4th Rebecca Curtis Ben Jones 125 143 111 5
30 May 2024 FFOS LAS 3:35 4 FEARLESS 22 Danny Brooke Sean Bowen 114 137 110 1
30 May 2024 FFOS LAS 3:35 6 THE GYPSY DAVEY 7 Evan Williams Adam Wedge 110 131 116 2
29 May 2024 NEWTON ABBOT 2:58 3 INVESTMENT MANAGER 185 5/1 1st Joe Tizzard Brendan Powell 123 143 111 3
29 May 2024 TIPPERARY 3:03 16 SWISS ARMY OFFICER 12 12/1 3rd Kevin Thomas Coleman Nathan Crosse 49 79 104 10
29 May 2024 TIPPERARY 3:03 15 NAVORROSSE 16 28/1 8th G A Kingston Chris Hayes 52 74 100 12
29 May 2024 TIPPERARY 3:03 14 SKONTONOVSKI 12 22/1 14th Adrian McGuinness Cian MacRedmond 5 55 79 106 12
29 May 2024 TIPPERARY 3:03 6 LINGER FOR LONGER 13 16/1 1st Augustine Leahy Dylan Browne McMonagle 67 77 102 9
29 May 2024 TIPPERARY 3:03 13 CAGE RATTLER 15 9/1 13th John Andrew Kinsella Colin Keane 55 72 100 1
29 May 2024 TIPPERARY 3:03 2 MOGWLI 23 14/1 6th W McCreery Megan Telford-Kelly 10 69 75 106 5
29 May 2024 TIPPERARY 3:03 9 ROCK ETOILE 12 9/1 10th Andrew Slattery Andrew Slattery 64 79 107 7
30 May 2024 RIPON 3:50 8 HOPE JOANNA 196 1st Hcap Charlie Johnston Joe Fanning 48 72 83 3
29 May 2024 TIPPERARY 3:03 17 TYNAMITE 47 66/1 11th David Marnane 48 72 93 12
30 May 2024 LINGFIELD 4:00 4 EDERGOLE'S GIFT 9 Conrad Allen Marco Ghiani 55 65 94 2
30 May 2024 LINGFIELD 4:00 1 PANNONICA 14 6/1 Richard Hannon Joe Leavy 5 57 66 97 3
30 May 2024 LINGFIELD 4:00 10 CALL ME THE BREEZE 22 1st Hcap 3/1 Tom Ward Sean Levey 47 64 82 7
30 May 2024 LINGFIELD 4:00 13 PEARL OF ROWDOWN 82 1st Hcap Mark Usher George Rooke 45 63 89 11
30 May 2024 LINGFIELD 4:00 8 ASH WEDNESDAY 13 1st Hcap 11/1 Heather Main Ray Dawson 50 65 89 6
30 May 2024 LINGFIELD 4:00 6 MOREGINPLEASE 28 John Ryan Sean D Bowen 5 50 79 95 3
29 May 2024 BEVERLEY 3:10 1 ZOZIMUS 11 9/4F 2nd David O'Meara Daniel Tudhope 78 98 108 3
29 May 2024 BEVERLEY 3:10 8 POET'S DAWN 15 12/1 7th Tim Easterby Alex Fielding 7 70 93 104 5
29 May 2024 BEVERLEY 3:10 4 MAKEEN 50 28/1 1st Julie Camacho Ryan Sexton 74 87 106 7
29 May 2024 BEVERLEY 3:10 9 WATH COURT 10 66/1 9th Brian Rothwell James Sullivan 59 102 95 7
29 May 2024 BEVERLEY 3:10 2 HARTSWOOD 82 7/1 5th Richard Fahey Jack Garritty 78 90 104 4
29 May 2024 BEVERLEY 3:10 6 OVERNIGHT OATS 34 20/1 6th Dr Richard Newland & Jamie Insol Billy Loughnane 72 89 101 7
29 May 2024 BEVERLEY 3:10 7 SHE'S GOT BOTTLE 23 4/1 3rd Roger Fell & Sean Murray Jason Hart 70 87 106 1
29 May 2024 BEVERLEY 3:10 5 BELTANE 15 100/30 8th Michael Appleby Alistair Rawlinson 73 95 108 2
29 May 2024 HAMILTON 3:20 2 BUSTAAM 4 7/2J 6th David O'Meara David Nolan 74 86 99 2
29 May 2024 HAMILTON 3:20 5 SPANISH HUSTLE 24 7/1 5th Jim Goldie Clifford Lee 66 87 102 1
29 May 2024 HAMILTON 3:20 6 EBONY MAW 30 10/1 2nd Ewan Whillans Rowan Scott 63 86 97 5
29 May 2024 HAMILTON 3:20 1 NAVARRE EXPRESS 12 7/1 3rd Hugo Palmer Kevin Stott 75 86 103 3
29 May 2024 HAMILTON 3:20 3 TWO AULD PALS 25 4/1 1st Lucinda Russell Oisin Orr 73 87 104 6
30 May 2024 RIPON 4:20 9 EY UP ITS THE BOSS 11 6/1 Tony Coyle & Kaine Wood Jack Enright 7 77 99 105 1
30 May 2024 RIPON 4:20 2 ZARABANDA 8 9/1 David O'Meara Mark Winn 3 90 102 105 3
29 May 2024 NEWTON ABBOT 3:28 1 I SHUT THAT D'OR 38 7/1 PU Joe Tizzard Freddie Gingell 3 99 116 92 2
30 May 2024 RIPON 4:20 4 BARYSHNIKOV 11 13/2 David & Nicola Barron Connor Beasley 86 103 106 8
30 May 2024 RIPON 4:20 6 COCKALORUM 18 Roger Fell & Sean Murray Jason Hart 81 101 102 6
30 May 2024 RIPON 4:20 8 TITIAN 33 10/3 Julie Camacho Ryan Sexton 79 106 102 7
30 May 2024 FFOS LAS 4:40 8 COUP DE GOLD 23 Evan Williams Miss Eleanor Williams 7 84 121 111 3
29 May 2024 BEVERLEY 3:40 9 STAR OF ST JAMES 15 11/1 2nd Ivan Furtado Elle-May Croot 7 45 67 97 5
30 May 2024 FFOS LAS 4:40 6 GAVIN 207 Peter & Michael Bowen Sean Bowen 98 124 104 6
30 May 2024 FFOS LAS 4:40 7 CROSSBEAU 23 7/1 Tim Vaughan Alan Johns 90 123 103 4
29 May 2024 BEVERLEY 3:40 8 RIBKANA 10 10/1 11th Tim Easterby David Allan 46 66 97 1
29 May 2024 BEVERLEY 3:40 6 JOSIEBOND 6 9/2 7th Mark Walford Jack Garritty 48 72 103 6
29 May 2024 BEVERLEY 3:40 7 PREMIERSHIP 28 17/2 10th Michael Wigham Jason Hart 47 74 94 7
30 May 2024 RIPON 4:50 6 WOODLEIGH 28 7/2 Declan Carroll Zak Wheatley 5 64 80 97 6
30 May 2024 RIPON 4:50 8 VINTAGE LOVE 24 9/1 Grant Tuer Benoit De La Sayette 61 82 99 2
30 May 2024 RIPON 4:50 3 MUTASAWI 33 David O'Meara Daniel Tudhope 67 86 103 2
30 May 2024 RIPON 4:50 7 LA LA LUCRATIVE 7 Gemma Tutty Rowan Scott 61 85 105 1
30 May 2024 LINGFIELD 5:00 1 MILLIETHEMOLLIE 32 4/1 Tony Carroll Rossa Ryan 62 70 105 2
29 May 2024 NEWTON ABBOT 3:58 1 MONJULES 121 7/4F PU Harry Fry Miss Megan Bevan 7 112 123 112 1
30 May 2024 LINGFIELD 5:00 6 MARCUS 14 Charlie Wallis Marco Ghiani 46 78 90 4
30 May 2024 LINGFIELD 5:00 4 TOMSHALFSISTER 14 Robert Cowell Jack Mitchell 57 70 88 4
29 May 2024 TIPPERARY 4:03 9 SO MESSI 8 6/1 12th Patrick Martin James Ryan 5 52 71 102 2
29 May 2024 TIPPERARY 4:03 6 ROCK BASHER 47 9/1 5th Luke Comer Declan McDonogh 55 79 96 1
29 May 2024 TIPPERARY 4:03 5 VENETIAN 90 4/1 to 5/2F 2nd Sean Davis Sean Davis 58 89 101 4
30 May 2024 FFOS LAS 5:10 7 RUBYS REWARD 11 17/1 Debra Hamer Jack Tudor 79 106 116 11
29 May 2024 TIPPERARY 4:03 7 STATUS GREEN 15 9/1 1st Joseph G Murphy Gary Carroll 54 78 99 6
29 May 2024 TIPPERARY 4:03 4 DAZZLING SPIRIT 16 40/1 6th Mrs Denise Foster Ben Coen 58 80 99 9
29 May 2024 TIPPERARY 4:03 13 LISAMARIA 9 13/2 13th Paul W Flynn Robert Whearty 5 47 70 100 7
29 May 2024 TIPPERARY 4:03 3 MAGIC CHARM 33 10/1 4th Martin Hassett Wayne Hassett 5 61 68 107 5
29 May 2024 TIPPERARY 4:03 8 ANGEL ON FIRE 24 11/2 9th P F McEnery Cian MacRedmond 5 52 73 100 3
29 May 2024 TIPPERARY 4:03 11 ADHUIL 20 10/1 3rd Aidan Anthony Howard Rebecca Parsons 10 50 72 98 8
30 May 2024 FFOS LAS 5:10 4 VALENTINE GETAWAY 21 Jonjo & A J O'Neill Jonjo O'Neill Jr 87 106 109 2
29 May 2024 TIPPERARY 4:03 15 TALKING TOUGH 15 66/1 8th S M Duffy Nathan Crosse 47 76 98 9
29 May 2024 BEVERLEY 4:10 3 HEATHERDOWN HERO 43 12/1 5th Rebecca Menzies Hollie Doyle 54 69 103 6
29 May 2024 BEVERLEY 4:10 4 NIGHT LIFE 46 9/1 7th Mark Walford Billy Loughnane 53 73 98 4
29 May 2024 BEVERLEY 4:10 9 TIBERIO FORCE 51 5/1 4th Simon Whitaker Mark Winn 3 46 68 105 3
29 May 2024 BEVERLEY 4:10 6 CLOUDY ROSE 29 2/1F 2nd John Berry Gina Mangan 3 52 64 104 1
29 May 2024 BEVERLEY 4:10 5 TWOFORTHEGUTTER 16 7/2 3rd Christopher Kellett Jason Hart 53 69 97 2
29 May 2024 HAMILTON 4:20 2 SLAINTE MHATH 4 11/10F 3rd Katie Scott Phil Dennis 75 94 106 1
29 May 2024 HAMILTON 4:20 6 IRIS DANCER 12 9/1 7th Tristan Davidson Andrew Mullen 68 90 109 2
30 May 2024 RIPON 5:25 7 ERNEST RUTHERFORD 17 7/1 Tim Easterby David Allan 52 72 102 4
30 May 2024 RIPON 5:25 2 GUNNERSIDE 261 Grant Tuer Benoit De La Sayette 55 65 103 5
30 May 2024 RIPON 5:25 1 HURSTWOOD 17 9/2 Peter Niven Mark Winn 3 56 76 102 10
30 May 2024 RIPON 5:25 5 PROTEST RALLY 13 Liam Bailey Daniel Tudhope 54 74 101 1
29 May 2024 HAMILTON 4:20 8 RAMON DI LORIA 102 40/1 4th Ewan Whillans Rowan Scott 63 97 105 8
29 May 2024 HAMILTON 4:20 7 HAVANA RUM 19 11/2 6th Richard Fahey Oisin Orr 68 87 109 4
30 May 2024 RIPON 5:25 4 RUN THIS WAY 2 Paul Midgley David Nolan 59 69 97 8
30 May 2024 RIPON 5:25 6 TILSWORTH TURF 19 J R Jenkins Rowan Scott 52 67 96 2
29 May 2024 HAMILTON 4:20 3 EMILY POST 18 14/1 8th Michael Dods Sean Kirrane 75 92 102 5
30 May 2024 RIPON 5:25 11 HARD SOLUTION 13 Ruth Carr James Sullivan 47 69 101 2
29 May 2024 HAMILTON 4:20 4 COLD STARE 32 16/1 2nd David O'Meara David Nolan 74 91 108 6
30 May 2024 FAIRYHOUSE 5:30 17 LADY CHRISTA 195 Ms Sheila Lavery Keithen Kennedy 4 52 83 100 6
30 May 2024 FAIRYHOUSE 5:30 18 BARRYS ROCK 97 Anthony Mullins Rory Mulligan 7 50 95 109 9
30 May 2024 FAIRYHOUSE 5:30 11 BLACKBERRY JACK 16 Denis Leahy Hugh Horgan 2 67 79 100 13
30 May 2024 FAIRYHOUSE 5:30 8 HASTEN SLOWLY 76 John C McConnell Dylan Kidd 7 69 82 104 9
30 May 2024 FAIRYHOUSE 5:30 19 EPAULAWN 23 Noel G Hynds 47 78 102 13
30 May 2024 FAIRYHOUSE 5:30 12 QASBAZ 287 Ian Patrick Donoghue James Ryan 66 78 106 13
30 May 2024 FAIRYHOUSE 5:30 1 ALMA LIBRE 285 11/1 Miss Natalia Lupini Wesley Joyce 2 74 78 112 9
30 May 2024 FAIRYHOUSE 5:30 14 MR MILLS 248 Chris Timmons Sean Bird 7 60 76 111 4
30 May 2024 FAIRYHOUSE 5:30 3 ENCOSTA 13 Noel Meade Robert Whearty 74 78 112 2
30 May 2024 FAIRYHOUSE 5:30 5 MOONLIT MIST 53 David Harry Kelly Amy Jo Hayes 7 72 81 104 6
30 May 2024 FAIRYHOUSE 5:30 2 COMPLETE FICTION 18 Jarlath P Fahey Scott McCullagh 74 77 108 3
30 May 2024 FAIRYHOUSE 5:30 7 OUT ON FRIDAY 15 Philip M Byrne Jack Kearney 2 71 78 109 13
30 May 2024 CARLISLE 5:55 3 WOOBAY 202 Danny Brooke Miss Pippa Brown 5 70 60 104 9
30 May 2024 CARLISLE 5:55 6 BURJ MALINKA 16 10/3 Adrian Nicholls Mr Jack Nicholls 3 66 64 109 1
30 May 2024 CARLISLE 5:55 8 GISELLES IZZY 25 4/1 Iain Jardine Miss Hannah Crawford 5 64 61 107 2
30 May 2024 CARLISLE 5:55 10 MIGHTY POWER 33 Stella Barclay Mr Kevin Skelton 5 63 64 106 11
30 May 2024 CARLISLE 5:55 7 WILLINGLY 14 6/1 Mark Usher Mr Eireann Cagney 65 62 110 3
30 May 2024 CARLISLE 5:55 9 LADY CELIA 193 Alan Brown Miss Amy Collier 3 63 62 104 6
30 May 2024 CARLISLE 5:55 2 IMPRESSOR 8 Phillip Makin Mr Ned Sangster 7 70 66 108 7
30 May 2024 CARLISLE 5:55 1 COUNT D'ORSAY 14 Tim Easterby Mr Thomas Easterby 5 70 71 107 7
29 May 2024 BEVERLEY 4:40 1 STARSHOT 12 18/1 8th Jessica Bedi Andrew Breslin 3 55 69 101 8
29 May 2024 BEVERLEY 4:40 7 CAN CAN GIRL 18 5/1 2nd Craig Lidster Ben Robinson 50 83 101 4
29 May 2024 BEVERLEY 4:40 3 SAM SARPHATI 16 12/1 5th Sara Ender Harrison Shaw 53 68 94 7
29 May 2024 BEVERLEY 4:40 4 LAUDABLE 15 8/1 4th Tristan Davidson Jason Hart 53 67 91 5
29 May 2024 BEVERLEY 4:40 5 LINCOLN ROCKSTAR 226 11/4F 1st Ivan Furtado Marco Ghiani 52 67 95 3
29 May 2024 BEVERLEY 4:40 6 DEFENCE TREATY 59 11/1 3rd Scott Dixon David Allan 52 71 94 6
29 May 2024 BEVERLEY 4:40 8 JAMIH 16 6/1 6th Tina Jackson Joanna Mason 47 72 105 2
30 May 2024 CARLISLE 5:55 11 ELLADORA 7 17/1 Micky Hammond Mr Ryan Price 7 49 76 105 4
30 May 2024 CARLISLE 5:55 4 HUDDLE UP 17 David & Nicola Barron Miss Alice Keighley 69 65 103 4
30 May 2024 CARLISLE 5:55 5 APACHE STAR 32 Mark Loughnane Miss Tilly Evans 5 66 59 103 9
30 May 2024 FAIRYHOUSE 6:00 8 RINGSIDE TIMING 37 J S Bolger Rory Cleary 70 92 101 8
29 May 2024 HAMILTON 4:50 3 BLACK FRIDAY 24 100/30 4th R Mike Smith Paddy Mathers 68 85 105 3
29 May 2024 HAMILTON 4:50 5 SHINE ON BRENDAN 24 4/1 5th Jim Goldie Clifford Lee 65 81 105 4
29 May 2024 HAMILTON 4:50 4 ARKENSTAAR 24 1/1 to 15/8F 1st Michael Dods Paul Mulrennan 67 81 103 1
29 May 2024 HAMILTON 4:50 2 VELLNER 27 4/1 2nd Bernard Llewellyn Oisin Orr 69 91 101 2
29 May 2024 HAMILTON 4:50 6 LUNACY 24 12/1 6th Iain Jardine Andrew Mullen 59 84 95 5
29 May 2024 NEWTON ABBOT 5:03 6 MR ZEE 37 100/30F 4th Michael Blake Charlie Todd 84 108 94 3
30 May 2024 WARWICK 6:10 6 POTTLERATH 23 Matt Sheppard Mr Charlie Case 5 100 121 111 5
29 May 2024 TIPPERARY 5:08 19 TOM THE PLASTERER 12 12/1 9th Luke Comer Wesley Joyce 5 51 75 103 2
29 May 2024 TIPPERARY 5:08 4 GLYDE RANGER 11 18/1 17th T G McCourt James Ryan 5 63 67 100 10
29 May 2024 TIPPERARY 5:08 5 L'UN DEUX TROIS 16 9/1 3rd Oliver McKiernan Ronan Whelan 63 67 95 9
29 May 2024 TIPPERARY 5:08 2 FORLIO 13 7/1 10th Paul W Flynn Colin Keane 65 72 3
29 May 2024 TIPPERARY 5:08 6 FOLLY BEACH 20 12/1 15th M A Molloy Ben Coen 62 69 102 7
29 May 2024 TIPPERARY 5:08 7 NUSRA 13 14/1 7th G Ahern J M Sheridan 62 67 77 1
29 May 2024 TIPPERARY 5:08 8 PARADISE LOST 20 9/2F 2nd Charles O'Brien W J Lee 62 69 89 8
29 May 2024 TIPPERARY 5:08 16 GARDONE 22 8/1 16th E McNamara Leigh Roche 48 70 99 11
29 May 2024 TIPPERARY 5:08 15 SCEPTRED ISLE 11 28/1 1st G A Kingston Siobhan Rutledge 3 51 69 104 11
29 May 2024 TIPPERARY 5:08 3 DESERT FRIEND 22 33/1 8th Mrs Denise Foster Gary Carroll 63 77 104 11
29 May 2024 TIPPERARY 5:08 9 FIRM BELIEF 11 8/1 5th Rodger Sweeney Dylan Browne McMonagle 60 72 108 6
29 May 2024 TIPPERARY 5:08 18 CHILEAN 224 33/1 14th Luke Comer Nathan Crosse 47 73